createdAt,value
2018-12-08T00:00:20.965Z,0
2018-12-08T00:01:01.565Z,0
2018-12-08T00:01:42.150Z,0
2018-12-08T00:02:22.694Z,0
2018-12-08T00:03:03.245Z,0
2018-12-08T00:03:43.794Z,0
2018-12-08T00:04:24.348Z,0
2018-12-08T00:05:04.935Z,0
2018-12-08T00:05:45.531Z,0
2018-12-08T00:06:26.074Z,0
2018-12-08T00:07:06.686Z,0
2018-12-08T00:07:47.263Z,0
2018-12-08T00:08:27.811Z,0
2018-12-08T00:09:08.371Z,0
2018-12-08T00:09:48.920Z,0
2018-12-08T00:10:29.486Z,0
2018-12-08T00:11:10.046Z,0
2018-12-08T00:11:50.597Z,0
2018-12-08T00:12:31.144Z,0
2018-12-08T00:13:11.727Z,0
2018-12-08T00:13:52.281Z,0
2018-12-08T00:14:32.878Z,0
2018-12-08T00:15:13.445Z,0
2018-12-08T00:15:54.001Z,0
2018-12-08T00:16:34.566Z,0
2018-12-08T00:17:15.128Z,0
2018-12-08T00:17:55.710Z,0
2018-12-08T00:18:36.273Z,0
2018-12-08T00:19:16.829Z,0
2018-12-08T00:19:57.493Z,0
2018-12-08T00:20:38.147Z,0
2018-12-08T00:21:18.704Z,0
2018-12-08T00:21:59.257Z,0
2018-12-08T00:22:39.812Z,0
2018-12-08T00:23:20.372Z,0
2018-12-08T00:24:00.943Z,0
2018-12-08T00:24:41.515Z,0
2018-12-08T00:25:22.077Z,0
2018-12-08T00:26:02.638Z,0
2018-12-08T00:26:43.202Z,0
2018-12-08T00:27:23.789Z,0
2018-12-08T00:28:04.334Z,0
2018-12-08T00:28:44.900Z,0
2018-12-08T00:29:25.489Z,0
2018-12-08T00:30:06.082Z,0
2018-12-08T00:30:46.626Z,0
2018-12-08T00:31:27.176Z,0
2018-12-08T00:32:07.736Z,0
2018-12-08T00:32:48.327Z,0
2018-12-08T00:33:28.874Z,0
2018-12-08T00:34:09.439Z,0
2018-12-08T00:34:50.003Z,0
2018-12-08T00:35:30.565Z,0
2018-12-08T00:36:11.137Z,0
2018-12-08T00:36:51.745Z,0
2018-12-08T00:37:32.299Z,0
2018-12-08T00:38:12.861Z,0
2018-12-08T00:38:53.426Z,0
2018-12-08T00:39:33.983Z,0
2018-12-08T00:40:14.565Z,0
2018-12-08T00:40:55.130Z,0
2018-12-08T00:41:35.694Z,0
2018-12-08T00:42:16.284Z,0
2018-12-08T00:42:56.879Z,0
2018-12-08T00:43:37.444Z,0
2018-12-08T00:44:18.010Z,0
2018-12-08T00:44:58.586Z,0
2018-12-08T00:45:39.144Z,0
2018-12-08T00:46:19.722Z,0
2018-12-08T00:47:00.270Z,0
2018-12-08T00:47:40.821Z,0
2018-12-08T00:48:21.395Z,0
2018-12-08T00:49:02.022Z,0
2018-12-08T00:49:42.589Z,0
2018-12-08T00:50:23.144Z,0
2018-12-08T00:51:03.856Z,0
2018-12-08T00:51:44.403Z,0
2018-12-08T00:52:24.962Z,0
2018-12-08T00:53:05.534Z,0
2018-12-08T00:53:46.107Z,0
2018-12-08T00:54:26.663Z,0
2018-12-08T00:55:07.249Z,0
2018-12-08T00:55:47.788Z,0
2018-12-08T00:56:28.370Z,0
2018-12-08T00:57:08.967Z,0
2018-12-08T00:57:49.519Z,0
2018-12-08T00:58:30.116Z,0
2018-12-08T00:59:10.698Z,0
2018-12-08T00:59:51.244Z,0
2018-12-08T01:00:31.825Z,0
2018-12-08T01:01:12.393Z,0
2018-12-08T01:01:52.961Z,0
2018-12-08T01:02:33.523Z,0
2018-12-08T01:03:14.064Z,0
2018-12-08T01:03:54.636Z,0
2018-12-08T01:04:35.206Z,0
2018-12-08T01:05:15.778Z,0
2018-12-08T01:05:56.328Z,0
2018-12-08T01:06:36.878Z,0
2018-12-08T01:07:17.450Z,0
2018-12-08T01:07:58.014Z,0
2018-12-08T01:08:38.583Z,0
2018-12-08T01:09:19.194Z,0
2018-12-08T01:09:59.752Z,0
2018-12-08T01:10:40.329Z,0
2018-12-08T01:11:20.883Z,0
2018-12-08T01:12:01.558Z,0
2018-12-08T01:12:42.049Z,0
2018-12-08T01:13:22.611Z,0
2018-12-08T01:14:03.175Z,0
2018-12-08T01:14:43.728Z,0
2018-12-08T01:15:24.291Z,0
2018-12-08T01:16:04.839Z,0
2018-12-08T01:16:45.385Z,0
2018-12-08T01:17:25.970Z,0
2018-12-08T01:18:06.544Z,0
2018-12-08T01:18:47.111Z,0
2018-12-08T01:19:27.683Z,0
2018-12-08T01:20:08.297Z,0
2018-12-08T01:20:48.866Z,0
2018-12-08T01:21:29.425Z,0
2018-12-08T01:22:09.995Z,0
2018-12-08T01:22:50.534Z,0
2018-12-08T01:23:31.094Z,0
2018-12-08T01:24:11.652Z,0
2018-12-08T01:24:52.205Z,0
2018-12-08T01:25:32.795Z,0
2018-12-08T01:26:13.356Z,0
2018-12-08T01:26:53.907Z,0
2018-12-08T01:27:34.485Z,0
2018-12-08T01:28:15.075Z,0
2018-12-08T01:28:55.595Z,0
2018-12-08T01:29:36.146Z,0
2018-12-08T01:30:16.793Z,0
2018-12-08T01:30:57.403Z,0
2018-12-08T01:31:37.976Z,0
2018-12-08T01:32:18.614Z,0
2018-12-08T01:32:59.259Z,0
2018-12-08T01:33:39.797Z,0
2018-12-08T01:34:20.379Z,0
2018-12-08T01:35:00.950Z,0
2018-12-08T01:35:41.709Z,0
2018-12-08T01:36:22.297Z,0
2018-12-08T01:37:02.923Z,0
2018-12-08T01:37:43.470Z,0
2018-12-08T01:38:24.043Z,0
2018-12-08T01:39:04.578Z,0
2018-12-08T01:39:45.140Z,0
2018-12-08T01:40:25.685Z,0
2018-12-08T01:41:06.254Z,0
2018-12-08T01:41:46.830Z,0
2018-12-08T01:42:27.404Z,0
2018-12-08T01:43:07.997Z,0
2018-12-08T01:43:48.603Z,0
2018-12-08T01:44:29.142Z,0
2018-12-08T01:45:09.725Z,0
2018-12-08T01:45:50.331Z,0
2018-12-08T01:46:30.901Z,0
2018-12-08T01:47:11.481Z,0
2018-12-08T01:47:52.072Z,0
2018-12-08T01:48:32.608Z,0
2018-12-08T01:49:13.159Z,0
2018-12-08T01:49:53.757Z,0
2018-12-08T01:50:34.343Z,0
2018-12-08T01:51:14.893Z,0
2018-12-08T01:51:55.463Z,0
2018-12-08T01:52:36.069Z,0
2018-12-08T01:53:16.628Z,0
2018-12-08T01:53:57.192Z,0
2018-12-08T01:54:37.759Z,0
2018-12-08T01:55:18.359Z,0
2018-12-08T01:55:58.929Z,0
2018-12-08T01:56:39.497Z,0
2018-12-08T01:57:20.059Z,0
2018-12-08T01:58:00.621Z,0
2018-12-08T01:58:41.182Z,0
2018-12-08T01:59:21.825Z,0
2018-12-08T02:00:02.381Z,0
2018-12-08T02:00:42.934Z,0
2018-12-08T02:01:23.499Z,0
2018-12-08T02:02:04.087Z,0
2018-12-08T02:02:44.652Z,0
2018-12-08T02:03:25.207Z,0
2018-12-08T02:04:05.774Z,0
2018-12-08T02:04:46.345Z,0
2018-12-08T02:05:26.927Z,0
2018-12-08T02:06:07.515Z,0
2018-12-08T02:06:48.076Z,0
2018-12-08T02:07:28.648Z,0
2018-12-08T02:08:09.213Z,0
2018-12-08T02:08:49.809Z,0
2018-12-08T02:09:30.535Z,0
2018-12-08T02:10:11.115Z,0
2018-12-08T02:10:51.729Z,0
2018-12-08T02:11:32.259Z,0
2018-12-08T02:12:12.851Z,0
2018-12-08T02:12:53.450Z,0
2018-12-08T02:13:34.017Z,0
2018-12-08T02:14:14.609Z,0
2018-12-08T02:14:55.241Z,0
2018-12-08T02:15:35.823Z,0
2018-12-08T02:16:16.396Z,0
2018-12-08T02:16:56.949Z,0
2018-12-08T02:17:37.509Z,0
2018-12-08T02:18:18.113Z,0
2018-12-08T02:18:58.660Z,0
2018-12-08T02:19:39.235Z,0
2018-12-08T02:20:19.786Z,0
2018-12-08T02:21:00.346Z,0
2018-12-08T02:21:40.960Z,0
2018-12-08T02:22:21.538Z,0
2018-12-08T02:23:02.094Z,0
2018-12-08T02:23:42.651Z,0
2018-12-08T02:24:23.244Z,0
2018-12-08T02:25:03.814Z,0
2018-12-08T02:25:44.366Z,0
2018-12-08T02:26:24.944Z,0
2018-12-08T02:27:05.557Z,0
2018-12-08T02:27:46.085Z,0
2018-12-08T02:28:26.654Z,0
2018-12-08T02:29:07.235Z,0
2018-12-08T02:29:47.807Z,0
2018-12-08T02:30:28.365Z,0
2018-12-08T02:31:08.929Z,0
2018-12-08T02:31:49.494Z,0
2018-12-08T02:32:30.088Z,0
2018-12-08T02:33:12.769Z,0
2018-12-08T02:33:51.204Z,0
2018-12-08T02:34:31.784Z,0
2018-12-08T02:35:12.331Z,0
2018-12-08T02:35:52.885Z,0
2018-12-08T02:36:33.463Z,0
2018-12-08T02:37:14.241Z,0
2018-12-08T02:37:54.808Z,0
2018-12-08T02:38:35.370Z,0
2018-12-08T02:39:15.946Z,0
2018-12-08T02:39:56.507Z,0
2018-12-08T02:40:37.080Z,0
2018-12-08T02:41:17.664Z,0
2018-12-08T02:41:58.228Z,0
2018-12-08T02:42:38.779Z,0
2018-12-08T02:43:19.351Z,0
2018-12-08T02:43:59.925Z,0
2018-12-08T02:44:40.504Z,0
2018-12-08T02:45:21.134Z,0
2018-12-08T02:46:01.693Z,0
2018-12-08T02:46:42.245Z,0
2018-12-08T02:47:22.800Z,0
2018-12-08T02:48:03.362Z,0
2018-12-08T02:48:43.902Z,0
2018-12-08T02:49:24.514Z,0
2018-12-08T02:50:05.082Z,0
2018-12-08T02:50:45.662Z,0
2018-12-08T02:51:26.217Z,0
2018-12-08T02:52:06.780Z,0
2018-12-08T02:52:47.379Z,0
2018-12-08T02:53:27.940Z,0
2018-12-08T02:54:08.489Z,0
2018-12-08T02:54:49.018Z,0
2018-12-08T02:55:29.647Z,0
2018-12-08T02:56:10.193Z,0
2018-12-08T02:56:50.760Z,0
2018-12-08T02:57:31.371Z,0
2018-12-08T02:58:11.886Z,0
2018-12-08T02:58:52.446Z,0
2018-12-08T02:59:33.067Z,0
2018-12-08T03:00:13.664Z,0
2018-12-08T03:00:54.246Z,0
2018-12-08T03:01:34.866Z,0
2018-12-08T03:02:15.421Z,0
2018-12-08T03:02:56.007Z,0
2018-12-08T03:03:36.597Z,0
2018-12-08T03:04:17.258Z,0
2018-12-08T03:04:57.747Z,0
2018-12-08T03:05:38.296Z,0
2018-12-08T03:06:18.866Z,0
2018-12-08T03:06:59.445Z,0
2018-12-08T03:07:39.983Z,0
2018-12-08T03:08:20.547Z,0
2018-12-08T03:09:01.115Z,0
2018-12-08T03:09:41.709Z,0
2018-12-08T03:10:22.314Z,0
2018-12-08T03:11:02.883Z,0
2018-12-08T03:11:43.441Z,0
2018-12-08T03:12:23.997Z,0
2018-12-08T03:13:04.548Z,0
2018-12-08T03:13:45.105Z,0
2018-12-08T03:14:25.654Z,0
2018-12-08T03:15:06.213Z,0
2018-12-08T03:15:46.787Z,0
2018-12-08T03:16:27.373Z,0
2018-12-08T03:17:07.978Z,0
2018-12-08T03:17:48.545Z,0
2018-12-08T03:18:29.101Z,0
2018-12-08T03:19:09.660Z,0
2018-12-08T03:19:50.250Z,0
2018-12-08T03:20:30.816Z,0
2018-12-08T03:21:11.393Z,0
2018-12-08T03:21:52.263Z,0
2018-12-08T03:22:32.683Z,0
2018-12-08T03:23:13.246Z,0
2018-12-08T03:23:53.822Z,0
2018-12-08T03:24:34.397Z,0
2018-12-08T03:25:14.951Z,0
2018-12-08T03:25:55.498Z,0
2018-12-08T03:26:36.059Z,0
2018-12-08T03:27:16.621Z,0
2018-12-08T03:27:57.186Z,0
2018-12-08T03:28:37.763Z,0
2018-12-08T03:29:18.309Z,0
2018-12-08T03:29:58.897Z,0
2018-12-08T03:30:39.468Z,0
2018-12-08T03:31:20.029Z,0
2018-12-08T03:32:00.615Z,0
2018-12-08T03:32:41.167Z,0
2018-12-08T03:33:21.726Z,0
2018-12-08T03:34:02.329Z,0
2018-12-08T03:34:42.923Z,0
2018-12-08T03:35:23.469Z,0
2018-12-08T03:36:04.026Z,0
2018-12-08T03:36:44.587Z,0
2018-12-08T03:37:25.152Z,0
2018-12-08T03:38:05.697Z,0
2018-12-08T03:38:46.266Z,0
2018-12-08T03:39:26.846Z,0
2018-12-08T03:40:07.411Z,0
2018-12-08T03:40:47.983Z,0
2018-12-08T03:41:28.570Z,0
2018-12-08T03:42:09.118Z,0
2018-12-08T03:42:49.682Z,0
2018-12-08T03:43:30.243Z,0
2018-12-08T03:44:10.826Z,0
2018-12-08T03:44:51.394Z,0
2018-12-08T03:45:31.948Z,0
2018-12-08T03:46:12.499Z,0
2018-12-08T03:46:53.096Z,0
2018-12-08T03:47:33.668Z,0
2018-12-08T03:48:14.228Z,0
2018-12-08T03:48:54.792Z,0
2018-12-08T03:49:35.355Z,0
2018-12-08T03:50:15.928Z,0
2018-12-08T03:50:56.472Z,0
2018-12-08T03:51:37.079Z,0
2018-12-08T03:52:17.639Z,0
2018-12-08T03:52:58.196Z,0
2018-12-08T03:53:38.779Z,0
2018-12-08T03:54:19.334Z,0
2018-12-08T03:54:59.891Z,0
2018-12-08T03:55:40.439Z,0
2018-12-08T03:56:21.012Z,0
2018-12-08T03:57:01.567Z,0
2018-12-08T03:57:42.113Z,0
2018-12-08T03:58:22.684Z,0
2018-12-08T03:59:03.249Z,0
2018-12-08T03:59:43.813Z,0
2018-12-08T04:00:24.388Z,0
2018-12-08T04:01:04.950Z,0
2018-12-08T04:01:45.525Z,0
2018-12-08T04:02:26.083Z,0
2018-12-08T04:03:06.629Z,0
2018-12-08T04:03:47.230Z,0
2018-12-08T04:04:27.788Z,0
2018-12-08T04:05:08.380Z,0
2018-12-08T04:05:48.929Z,0
2018-12-08T04:06:29.524Z,0
2018-12-08T04:07:10.086Z,0
2018-12-08T04:07:50.654Z,0
2018-12-08T04:08:31.219Z,0
2018-12-08T04:09:11.774Z,0
2018-12-08T04:09:52.326Z,0
2018-12-08T04:10:32.884Z,0
2018-12-08T04:11:13.451Z,0
2018-12-08T04:11:54.063Z,0
2018-12-08T04:12:34.637Z,0
2018-12-08T04:13:15.191Z,0
2018-12-08T04:13:55.757Z,0
2018-12-08T04:14:36.322Z,0
2018-12-08T04:15:16.864Z,0
2018-12-08T04:15:57.423Z,0
2018-12-08T04:16:38.043Z,0
2018-12-08T04:17:18.616Z,0
2018-12-08T04:17:59.247Z,0
2018-12-08T04:18:39.848Z,0
2018-12-08T04:19:20.409Z,0
2018-12-08T04:20:00.982Z,0
2018-12-08T04:20:41.543Z,0
2018-12-08T04:21:22.115Z,0
2018-12-08T04:22:02.643Z,0
2018-12-08T04:22:43.215Z,0
2018-12-08T04:23:23.787Z,0
2018-12-08T04:24:04.333Z,0
2018-12-08T04:24:44.897Z,0
2018-12-08T04:25:25.484Z,0
2018-12-08T04:26:06.044Z,0
2018-12-08T04:26:46.618Z,0
2018-12-08T04:27:27.183Z,0
2018-12-08T04:28:07.767Z,0
2018-12-08T04:28:48.348Z,0
2018-12-08T04:29:28.904Z,0
2018-12-08T04:30:09.514Z,0
2018-12-08T04:30:50.114Z,0
2018-12-08T04:31:30.608Z,0
2018-12-08T04:32:11.204Z,0
2018-12-08T04:32:51.764Z,0
2018-12-08T04:33:32.319Z,0
2018-12-08T04:34:12.888Z,0
2018-12-08T04:34:53.436Z,0
2018-12-08T04:35:34.073Z,0
2018-12-08T04:36:14.610Z,0
2018-12-08T04:36:55.195Z,0
2018-12-08T04:37:36.003Z,0
2018-12-08T04:38:16.557Z,0
2018-12-08T04:38:57.117Z,0
2018-12-08T04:39:37.678Z,0
2018-12-08T04:40:18.253Z,0
2018-12-08T04:40:58.848Z,0
2018-12-08T04:41:39.436Z,0
2018-12-08T04:42:20.119Z,0
2018-12-08T04:43:00.723Z,0
2018-12-08T04:43:41.275Z,0
2018-12-08T04:44:21.851Z,0
2018-12-08T04:45:02.420Z,0
2018-12-08T04:45:43.125Z,0
2018-12-08T04:46:23.582Z,0
2018-12-08T04:47:04.149Z,0
2018-12-08T04:47:44.705Z,0
2018-12-08T04:48:25.279Z,0
2018-12-08T04:49:05.828Z,0
2018-12-08T04:49:46.392Z,0
2018-12-08T04:50:26.949Z,0
2018-12-08T04:51:07.499Z,0
2018-12-08T04:51:48.060Z,0
2018-12-08T04:52:28.610Z,0
2018-12-08T04:53:09.170Z,0
2018-12-08T04:53:49.723Z,0
2018-12-08T04:54:30.380Z,0
2018-12-08T04:55:10.932Z,0
2018-12-08T04:55:51.502Z,0
2018-12-08T04:56:32.069Z,0
2018-12-08T04:57:12.641Z,0
2018-12-08T04:57:53.210Z,0
2018-12-08T04:58:33.829Z,0
2018-12-08T04:59:14.395Z,0
2018-12-08T04:59:55.244Z,0
2018-12-08T05:00:35.674Z,0
2018-12-08T05:01:16.281Z,0
2018-12-08T05:01:56.845Z,0
2018-12-08T05:02:37.426Z,0
2018-12-08T05:03:17.996Z,0
2018-12-08T05:03:58.536Z,0
2018-12-08T05:04:39.120Z,0
2018-12-08T05:05:19.668Z,0
2018-12-08T05:06:00.316Z,0
2018-12-08T05:06:40.869Z,0
2018-12-08T05:07:21.483Z,0
2018-12-08T05:08:02.024Z,0
2018-12-08T05:08:42.588Z,0
2018-12-08T05:09:23.135Z,0
2018-12-08T05:10:03.704Z,0
2018-12-08T05:10:44.252Z,0
2018-12-08T05:11:24.827Z,0
2018-12-08T05:12:05.381Z,0
2018-12-08T05:12:45.909Z,0
2018-12-08T05:13:26.482Z,0
2018-12-08T05:14:07.038Z,0
2018-12-08T05:14:47.588Z,0
2018-12-08T05:15:28.143Z,0
2018-12-08T05:16:08.712Z,0
2018-12-08T05:16:49.264Z,0
2018-12-08T05:17:29.861Z,0
2018-12-08T05:18:10.470Z,0
2018-12-08T05:18:51.063Z,0
2018-12-08T05:19:31.643Z,0
2018-12-08T05:20:12.202Z,0
2018-12-08T05:20:52.774Z,0
2018-12-08T05:21:33.344Z,0
2018-12-08T05:22:13.897Z,0
2018-12-08T05:22:54.466Z,0
2018-12-08T05:23:35.036Z,0
2018-12-08T05:24:15.583Z,0
2018-12-08T05:24:56.134Z,0
2018-12-08T05:25:36.757Z,0
2018-12-08T05:26:17.296Z,0
2018-12-08T05:26:57.839Z,0
2018-12-08T05:27:38.413Z,0
2018-12-08T05:28:19.004Z,0
2018-12-08T05:28:59.566Z,0
2018-12-08T05:29:40.113Z,0
2018-12-08T05:30:20.688Z,0
2018-12-08T05:31:01.231Z,0
2018-12-08T05:31:41.807Z,0
2018-12-08T05:32:22.521Z,0
2018-12-08T05:33:03.108Z,0
2018-12-08T05:33:43.790Z,0
2018-12-08T05:34:24.242Z,0
2018-12-08T05:35:04.815Z,0
2018-12-08T05:35:45.566Z,0
2018-12-08T05:36:26.157Z,0
2018-12-08T05:37:06.721Z,0
2018-12-08T05:37:47.308Z,0
2018-12-08T05:38:27.887Z,0
2018-12-08T05:39:08.434Z,0
2018-12-08T05:39:48.986Z,0
2018-12-08T05:40:29.792Z,0
2018-12-08T05:41:10.367Z,0
2018-12-08T05:41:50.927Z,0
2018-12-08T05:42:31.494Z,0
2018-12-08T05:43:12.086Z,0
2018-12-08T05:43:52.675Z,0
2018-12-08T05:44:33.314Z,0
2018-12-08T05:45:13.867Z,0
2018-12-08T05:45:54.418Z,0
2018-12-08T05:46:34.987Z,0
2018-12-08T05:47:15.563Z,0
2018-12-08T05:47:56.174Z,0
2018-12-08T05:48:36.739Z,0
2018-12-08T05:49:17.299Z,0
2018-12-08T05:49:57.882Z,0
2018-12-08T05:50:38.425Z,0
2018-12-08T05:51:18.980Z,0
2018-12-08T05:51:59.550Z,0
2018-12-08T05:52:40.103Z,0
2018-12-08T05:53:20.661Z,0
2018-12-08T05:54:01.212Z,0
2018-12-08T05:54:41.756Z,0
2018-12-08T05:55:22.330Z,0
2018-12-08T05:56:02.938Z,0
2018-12-08T05:56:43.485Z,0
2018-12-08T05:57:24.040Z,0
2018-12-08T05:58:04.608Z,0
2018-12-08T05:58:45.165Z,0
2018-12-08T05:59:25.749Z,0
2018-12-08T06:00:06.321Z,0
2018-12-08T06:00:46.889Z,0
2018-12-08T06:01:27.463Z,0
2018-12-08T06:02:08.012Z,0
2018-12-08T06:02:48.570Z,0
2018-12-08T06:03:29.141Z,0
2018-12-08T06:06:48.200Z,0
2018-12-08T06:07:28.752Z,0
2018-12-08T06:08:09.298Z,0
2018-12-08T06:08:49.852Z,0
2018-12-08T06:09:30.415Z,0
2018-12-08T06:10:10.984Z,0
2018-12-08T06:10:51.548Z,0
2018-12-08T06:11:32.103Z,0
2018-12-08T06:12:12.680Z,0
2018-12-08T06:12:53.231Z,0
2018-12-08T06:13:33.794Z,0
2018-12-08T06:14:14.353Z,0
2018-12-08T06:14:54.903Z,0
2018-12-08T06:15:35.482Z,0
2018-12-08T06:16:16.060Z,0
2018-12-08T06:16:56.637Z,0
2018-12-08T06:17:37.191Z,0
2018-12-08T06:18:17.769Z,0
2018-12-08T06:18:58.392Z,0
2018-12-08T06:19:38.939Z,0
2018-12-08T06:20:19.490Z,0
2018-12-08T06:21:00.102Z,0
2018-12-08T06:21:40.650Z,0
2018-12-08T06:22:21.243Z,0
2018-12-08T06:23:01.812Z,0
2018-12-08T06:23:42.376Z,0
2018-12-08T06:24:22.956Z,0
2018-12-08T06:25:03.538Z,0
2018-12-08T06:25:44.117Z,0
2018-12-08T06:26:24.670Z,0
2018-12-08T06:27:05.225Z,0
2018-12-08T06:27:45.786Z,0
2018-12-08T06:28:26.343Z,0
2018-12-08T06:29:06.955Z,0
2018-12-08T06:29:47.538Z,0
2018-12-08T06:30:28.144Z,0
2018-12-08T06:31:08.799Z,0
2018-12-08T06:31:49.398Z,0
2018-12-08T06:32:30.050Z,0
2018-12-08T06:33:10.631Z,0
2018-12-08T06:33:51.177Z,0
2018-12-08T06:34:31.730Z,0
2018-12-08T06:35:12.322Z,0
2018-12-08T06:35:52.882Z,0
2018-12-08T06:36:33.452Z,0
2018-12-08T06:37:14.261Z,0
2018-12-08T06:37:54.842Z,0
2018-12-08T06:38:35.407Z,0
2018-12-08T06:39:15.955Z,0
2018-12-08T06:39:56.510Z,0
2018-12-08T06:40:37.084Z,0
2018-12-08T06:41:17.617Z,0
2018-12-08T06:41:58.175Z,0
2018-12-08T06:42:38.754Z,0
2018-12-08T06:43:19.301Z,0
2018-12-08T06:43:59.924Z,0
2018-12-08T06:44:40.482Z,0
2018-12-08T06:45:21.032Z,0
2018-12-08T06:46:01.650Z,0
2018-12-08T06:46:42.206Z,0
2018-12-08T06:47:22.756Z,0
2018-12-08T06:48:03.319Z,0
2018-12-08T06:48:43.865Z,0
2018-12-08T06:49:24.432Z,0
2018-12-08T06:50:04.978Z,0
2018-12-08T06:50:45.535Z,0
2018-12-08T06:51:26.100Z,0
2018-12-08T06:52:06.646Z,0
2018-12-08T06:52:47.203Z,0
2018-12-08T06:53:27.864Z,0
2018-12-08T06:54:08.444Z,0
2018-12-08T06:54:49.029Z,0
2018-12-08T06:55:29.596Z,0
2018-12-08T06:56:10.117Z,0
2018-12-08T06:56:50.678Z,0
2018-12-08T06:57:31.369Z,0
2018-12-08T06:58:11.988Z,0
2018-12-08T06:58:52.583Z,0
2018-12-08T06:59:33.185Z,0
2018-12-08T07:00:13.953Z,0
2018-12-08T07:00:54.678Z,0
2018-12-08T07:01:35.239Z,0
2018-12-08T07:02:15.805Z,5
2018-12-08T07:02:56.369Z,5
2018-12-08T07:03:37.008Z,5
2018-12-08T07:04:17.560Z,5
2018-12-08T07:04:59.088Z,5
2018-12-08T07:05:39.781Z,5
2018-12-08T07:06:20.663Z,5
2018-12-08T07:07:01.392Z,5
2018-12-08T07:07:42.081Z,5
2018-12-08T07:08:23.607Z,5
2018-12-08T07:09:04.298Z,5
2018-12-08T07:09:45.108Z,5
2018-12-08T07:10:25.683Z,5
2018-12-08T07:11:06.582Z,5
2018-12-08T07:11:47.200Z,5
2018-12-08T07:12:28.288Z,5
2018-12-08T07:13:08.506Z,5
2018-12-08T07:13:49.233Z,5
2018-12-08T07:14:29.938Z,5
2018-12-08T07:15:10.500Z,5
2018-12-08T07:15:51.340Z,5
2018-12-08T07:16:32.077Z,5
2018-12-08T07:17:12.731Z,5
2018-12-08T07:17:53.274Z,5
2018-12-08T07:18:33.840Z,5
2018-12-08T07:19:14.533Z,5
2018-12-08T07:19:55.099Z,5
2018-12-08T07:20:35.678Z,5
2018-12-08T07:21:16.223Z,5
2018-12-08T07:21:56.859Z,10
2018-12-08T07:22:37.461Z,10
2018-12-08T07:23:18.023Z,15
2018-12-08T07:23:58.929Z,15
2018-12-08T07:24:39.662Z,15
2018-12-08T07:25:20.449Z,15
2018-12-08T07:26:01.006Z,20
2018-12-08T07:26:41.616Z,20
2018-12-08T07:27:22.334Z,25
2018-12-08T07:28:02.957Z,25
2018-12-08T07:28:43.514Z,30
2018-12-08T07:29:24.958Z,30
2018-12-08T07:30:05.501Z,30
2018-12-08T07:30:46.095Z,30
2018-12-08T07:31:26.717Z,30
2018-12-08T07:32:07.658Z,30
2018-12-08T07:32:49.298Z,30
2018-12-08T07:33:30.290Z,30
2018-12-08T07:34:10.901Z,30
2018-12-08T07:34:51.496Z,30
2018-12-08T07:35:32.121Z,30
2018-12-08T07:36:12.665Z,30
2018-12-08T07:36:53.413Z,25
2018-12-08T07:37:33.940Z,25
2018-12-08T07:38:14.523Z,25
2018-12-08T07:38:55.140Z,25
2018-12-08T07:39:36.030Z,25
2018-12-08T07:40:16.820Z,25
2018-12-08T07:40:57.507Z,25
2018-12-08T07:41:38.305Z,20
2018-12-08T07:42:18.864Z,20
2018-12-08T07:42:59.660Z,20
2018-12-08T07:43:40.626Z,20
2018-12-08T07:44:21.477Z,20
2018-12-08T07:45:02.112Z,20
2018-12-08T07:45:43.537Z,20
2018-12-08T07:46:24.100Z,20
2018-12-08T07:47:04.905Z,20
2018-12-08T07:47:45.703Z,15
2018-12-08T07:48:26.576Z,15
2018-12-08T07:49:08.290Z,15
2018-12-08T07:49:50.126Z,15
2018-12-08T07:50:30.778Z,15
2018-12-08T07:51:11.369Z,15
2018-12-08T07:51:51.988Z,10
2018-12-08T07:52:32.677Z,10
2018-12-08T07:53:13.245Z,10
2018-12-08T07:53:53.868Z,10
2018-12-08T07:54:34.640Z,10
2018-12-08T07:55:15.568Z,10
2018-12-08T07:55:56.378Z,10
2018-12-08T07:56:37.147Z,10
2018-12-08T07:57:17.721Z,10
2018-12-08T07:57:58.332Z,10
2018-12-08T07:58:39.166Z,10
2018-12-08T07:59:19.779Z,10
2018-12-08T08:00:00.355Z,10
2018-12-08T08:00:40.930Z,10
2018-12-08T08:01:21.633Z,15
2018-12-08T08:02:02.236Z,15
2018-12-08T08:02:42.918Z,15
2018-12-08T08:03:23.589Z,15
2018-12-08T08:04:04.263Z,15
2018-12-08T08:04:44.973Z,15
2018-12-08T08:05:25.933Z,15
2018-12-08T08:06:06.959Z,15
2018-12-08T08:06:47.510Z,20
2018-12-08T08:07:28.631Z,20
2018-12-08T08:08:09.324Z,25
2018-12-08T08:08:50.117Z,25
2018-12-08T08:09:31.104Z,25
2018-12-08T08:10:12.607Z,25
2018-12-08T08:10:53.179Z,30
2018-12-08T08:11:33.907Z,35
2018-12-08T08:12:14.577Z,40
2018-12-08T08:12:55.292Z,45
2018-12-08T08:13:36.132Z,60
2018-12-08T08:14:17.023Z,70
2018-12-08T08:14:57.794Z,85
2018-12-08T08:15:38.808Z,85
2018-12-08T08:16:19.492Z,90
2018-12-08T08:17:00.364Z,90
2018-12-08T08:17:41.249Z,80
2018-12-08T08:18:22.069Z,75
2018-12-08T08:19:02.659Z,65
2018-12-08T08:19:43.507Z,65
2018-12-08T08:20:25.042Z,55
2018-12-08T08:21:06.156Z,45
2018-12-08T08:21:47.015Z,45
2018-12-08T08:22:27.829Z,40
2018-12-08T08:23:08.617Z,35
2018-12-08T08:23:49.315Z,30
2018-12-08T08:24:30.193Z,20
2018-12-08T08:25:10.991Z,15
2018-12-08T08:25:51.655Z,15
2018-12-08T08:26:32.329Z,10
2018-12-08T08:27:13.225Z,10
2018-12-08T08:27:53.919Z,10
2018-12-08T08:28:34.719Z,10
2018-12-08T08:29:16.229Z,10
2018-12-08T08:29:56.786Z,10
2018-12-08T08:30:37.416Z,10
2018-12-08T08:31:18.169Z,10
2018-12-08T08:31:58.979Z,10
2018-12-08T08:32:39.580Z,15
2018-12-08T08:33:20.258Z,15
2018-12-08T08:34:00.828Z,15
2018-12-08T08:34:41.450Z,20
2018-12-08T08:35:22.011Z,20
2018-12-08T08:36:02.571Z,20
2018-12-08T08:36:43.136Z,25
2018-12-08T08:37:23.728Z,25
2018-12-08T08:38:04.303Z,25
2018-12-08T08:38:44.863Z,25
2018-12-08T08:39:25.420Z,25
2018-12-08T08:40:05.994Z,25
2018-12-08T08:40:46.590Z,20
2018-12-08T08:41:27.145Z,15
2018-12-08T08:42:08.290Z,15
2018-12-08T08:42:48.882Z,10
2018-12-08T08:43:29.443Z,10
2018-12-08T08:44:10.017Z,10
2018-12-08T08:44:50.568Z,10
2018-12-08T08:45:31.304Z,10
2018-12-08T08:46:11.893Z,10
2018-12-08T08:46:52.450Z,10
2018-12-08T08:47:32.997Z,15
2018-12-08T08:48:13.578Z,15
2018-12-08T08:48:54.139Z,15
2018-12-08T08:49:34.697Z,20
2018-12-08T08:50:15.256Z,20
2018-12-08T08:50:55.824Z,25
2018-12-08T08:51:36.389Z,30
2018-12-08T08:52:16.966Z,35
2018-12-08T08:52:57.538Z,40
2018-12-08T08:53:38.061Z,40
2018-12-08T08:54:18.635Z,130
2018-12-08T08:54:59.245Z,185
2018-12-08T08:55:39.917Z,90
2018-12-08T08:56:20.490Z,55
2018-12-08T08:57:01.196Z,50
2018-12-08T08:57:41.774Z,55
2018-12-08T08:58:22.338Z,75
2018-12-08T08:59:02.905Z,90
2018-12-08T08:59:43.558Z,95
2018-12-08T09:00:24.109Z,75
2018-12-08T09:01:04.720Z,70
2018-12-08T09:01:45.259Z,70
2018-12-08T09:02:25.820Z,65
2018-12-08T09:03:06.387Z,55
2018-12-08T09:03:46.952Z,50
2018-12-08T09:04:27.515Z,40
2018-12-08T09:05:08.071Z,40
2018-12-08T09:05:48.648Z,40
2018-12-08T09:06:29.211Z,35
2018-12-08T09:07:10.064Z,35
2018-12-08T09:07:50.630Z,35
2018-12-08T09:08:31.184Z,35
2018-12-08T09:09:11.739Z,40
2018-12-08T09:09:52.480Z,40
2018-12-08T09:10:33.395Z,40
2018-12-08T09:11:14.915Z,45
2018-12-08T09:11:54.756Z,45
2018-12-08T09:12:35.326Z,45
2018-12-08T09:13:15.886Z,45
2018-12-08T09:13:56.435Z,45
2018-12-08T09:14:37.103Z,40
2018-12-08T09:15:17.735Z,30
2018-12-08T09:15:58.368Z,30
2018-12-08T09:16:40.020Z,25
2018-12-08T09:17:21.048Z,25
2018-12-08T09:18:01.944Z,20
2018-12-08T09:18:43.465Z,20
2018-12-08T09:19:24.297Z,20
2018-12-08T09:20:05.062Z,25
2018-12-08T09:20:46.024Z,25
2018-12-08T09:21:28.380Z,35
2018-12-08T09:22:09.040Z,40
2018-12-08T09:22:49.654Z,40
2018-12-08T09:23:30.389Z,35
2018-12-08T09:24:11.226Z,35
2018-12-08T09:24:51.864Z,35
2018-12-08T09:25:33.030Z,40
2018-12-08T09:26:14.101Z,45
2018-12-08T09:26:55.115Z,55
2018-12-08T09:27:36.049Z,55
2018-12-08T09:28:16.641Z,60
2018-12-08T09:28:57.513Z,70
2018-12-08T09:29:38.991Z,60
2018-12-08T09:30:19.734Z,55
2018-12-08T09:31:00.816Z,55
2018-12-08T09:31:41.502Z,55
2018-12-08T09:32:22.152Z,50
2018-12-08T09:33:02.918Z,50
2018-12-08T09:33:43.513Z,45
2018-12-08T09:34:24.463Z,45
2018-12-08T09:35:05.086Z,40
2018-12-08T09:35:45.763Z,40
2018-12-08T09:36:26.840Z,45
2018-12-08T09:37:07.555Z,50
2018-12-08T09:37:48.117Z,50
2018-12-08T09:38:28.685Z,50
2018-12-08T09:39:09.240Z,55
2018-12-08T09:39:49.808Z,75
2018-12-08T09:40:30.366Z,70
2018-12-08T09:41:10.914Z,75
2018-12-08T09:41:51.493Z,75
2018-12-08T09:42:32.038Z,70
2018-12-08T09:43:12.600Z,60
2018-12-08T09:43:53.684Z,60
2018-12-08T09:44:34.485Z,50
2018-12-08T09:45:15.263Z,50
2018-12-08T09:45:55.820Z,50
2018-12-08T09:46:36.382Z,45
2018-12-08T09:47:16.927Z,35
2018-12-08T09:47:57.715Z,30
2018-12-08T09:48:38.320Z,30
2018-12-08T09:49:19.009Z,25
2018-12-08T09:49:59.622Z,25
2018-12-08T09:50:40.195Z,25
2018-12-08T09:51:20.846Z,30
2018-12-08T09:52:01.413Z,35
2018-12-08T09:52:41.971Z,35
2018-12-08T09:53:22.558Z,40
2018-12-08T09:54:03.116Z,45
2018-12-08T09:54:43.792Z,60
2018-12-08T09:55:24.354Z,130
2018-12-08T09:56:05.024Z,90
2018-12-08T09:56:45.566Z,115
2018-12-08T09:57:26.120Z,160